West Leechburg, Pennsylvania
Current Conditions -  °F | °C
As of 9:35 AM on Thursday 18 Dec 2014 (Local Time) from KBTP Reporting Station
Overcast Overcast  
Wind Chill: 19°   Ceiling: 1900
Heat Index: 27°   Visibility: 7mi
Dew Point: 21°   Wind: 7mph
Humidity: 80%   Direction: 270°W
Pressure: 30.19"   Gusts: NA
Location:  40.669°N, 79.6041°W
Report Text: KBTP 181435Z AUTO 27006KT 7SM OVC019 M03/M06 A3019 RMK AO1
Loading
Personal Weather Stations






























Interactive Weather Map New forecast layout! Learn more

10-Day Weather Forecast

Advertisements
Track Severe Weather on mobile